Laconia, NH (03246)

03:53 EDT le 31 août 2016 (GMT -0400)
KNHWEIRS3 | | Change Station

Alt. 837 ft 43.55 °N, 71.43 °W | Updated 25 seconds ago

Clear
Ciel dégagé
61.5 ° F
Paraît 61.5 ° F
N
0.0
Vent Variable Vent de ONO
Gusts 0.0 mph

Aujourd'hui
Haut(e) -- | Bas -- ° F
--% Risque de précip.
Hier
Haut(e) -- | Bas -- ° F
Precip. -- pouce
Pression 30.04 pouce
Visibilité 10.0 Miles terrestres
Nuages Ciel dégagé
Point de rosée 62 ° F
Humidité 100%
Précipitations 0.00 pouce
Profondeur de la couche neigeuse Non disponible.
6:08 AM 7:21 PM
Lune descendante, 1% visible
METAR KLCI 310656Z AUTO 00000KT 10SM CLR 17/15 A3000 RMK AO2 SLP171 T01670150
Pression 30.04 pouce
Visibilité 10.0 Miles terrestres
Nuages Ciel dégagé
Point de rosée 62 ° F
Humidité 100%
Précipitations 0.00 pouce
Profondeur de la couche neigeuse Non disponible.
6:08 AM 7:21 PM
Lune descendante, 1% visible
METAR KLCI 310656Z AUTO 00000KT 10SM CLR 17/15 A3000 RMK AO2 SLP171 T01670150

10-Day Weather Forecast

Almanac

Astronomie

Aug. 31, 2016 Lever Coucher
Temps réel
Crépuscule civil
Crépuscule nautique
Crépuscule astronomique
Lune
Durée de lumière visible
Longueur du jour
Tomorrow will be .
, % of the Moon is Illuminated

Extrêmes aujourd'hui

State Highs State Lows

Community

WunderPhotos

Upload Photos

1,936,038 Photos téléchargées !

WunderBlog® & News

Nearby

Qualité de l'air

  Qualité de l'air Indice de la qualité de l'air Polluant
Not available.

Épaisseur de neige

Station Depth Altitude

Activité sismique

Ville Distance Mag. Time & Date
Minimum magnitude displayed is 2.5.

Températures des eaux côtières

Lieu Température

Stations

Stations météo à proximité

Emplacement de la station Température Refroidissement éolien Point de rosée Humidité Vent Precip. Alt. Mise à jour Type
                   

Watches & Warnings

There are currently no watches in effect.